Tuesday, February 20, 2018, 10:31 AM EST
Back to Local

KWVL, Waterville, Waterville Robert Lafleur Airport

Location: Waterville, ME, United States Lat: 44.533
Local Time: 10:31 AM EST (15:31 GMT) Lon: -69.683
Time Zone: US/Eastern Elev: 334 ft

Show me the last for .
Show Decoded

2018-02-20 09:56 METAR KWVL 201456Z AUTO 03007KT 6SM -RA BR OVC004 03/03 A3022 RMK AO2 UPB1358E03
                 SLP263 P0000 60000 T00330028 50004 =
2018-02-20 09:17 METAR KWVL 201417Z AUTO 02005KT 6SM -RA BR OVC004 03/02 A3022 RMK AO2 UPB1358E03
                 CIG 003V009 P0000 =
2018-02-20 08:56 METAR KWVL 201356Z AUTO 02004KT 4SM -RA BR SCT004 BKN009 OVC031 03/02 A3022 RMK
                 AO2 RAE26B42UPB33E56 SLP264 P0000 T00280022 =
2018-02-20 08:49 METAR KWVL 201349Z AUTO 02005KT 4SM -RA BR SCT004 BKN009 OVC031 03/02 A3022 RMK
                 AO2 RAE26B42UPB33E42 P0000 =
2018-02-20 08:33 METAR KWVL 201333Z AUTO 02006KT 4SM UP BR OVC004 03/02 A3022 RMK AO2 RAE26UPB33
                 P0000 =
2018-02-20 08:15 METAR KWVL 201315Z AUTO 01004KT 3SM -RA BR OVC002 02/02 A3023 RMK AO2 P0000
                 FZRANO =
2018-02-20 08:07 METAR KWVL 201307Z AUTO 02004KT 2 1/2SM -RA BR OVC002 03/02 A3023 RMK AO2 P0000
                 =
2018-02-20 07:56 METAR KWVL 201256Z AUTO 03004KT 3SM -RA BR OVC002 03/02 A3022 RMK AO2 UPB13E24
                 SLP265 P0000 T00280022 =
2018-02-20 07:47 METAR KWVL 201247Z AUTO 03005KT 2SM -RA BR OVC002 03/02 A3022 RMK AO2 UPB13E24
                 P0000 =
2018-02-20 07:39 METAR KWVL 201239Z AUTO 03004KT 1SM -RA BR OVC002 03/02 A3021 RMK AO2 UPB13E24
                 P0000 =
2018-02-20 07:29 METAR KWVL 201229Z AUTO 03004KT 1 1/2SM -RA BR OVC002 02/02 A3021 RMK AO2
                 UPB13E24 P0000 FZRANO =
2018-02-20 07:16 METAR KWVL 201216Z AUTO 03004KT 2SM UP BR OVC002 02/02 A3021 RMK AO2 RAE13UPB13
                 P0000 FZRANO =
2018-02-20 06:56 METAR KWVL 201156Z AUTO 36003KT 4SM -RA BR OVC002 02/02 A3020 RMK AO2
                 RAB00UPB27E46 SLP259 P0000 60000 T00220017 10039 20022 53009 FZRANO =
2018-02-20 06:45 METAR KWVL 201145Z AUTO 33003KT 4SM UP BR OVC002 02/02 A3020 RMK AO2
                 RAB00E42UPB27 P0000 FZRANO =
2018-02-20 05:56 METAR KWVL 201056Z AUTO 03003KT 9SM BKN004 OVC041 03/03 A3017 RMK AO2 SLP248
                 T00330028 =
2018-02-20 05:53 METAR KWVL 201053Z AUTO 04004KT 9SM BKN004 OVC041 03/03 A3017 RMK AO2 =
2018-02-20 05:44 METAR KWVL 201044Z AUTO 03004KT 8SM SCT004 OVC041 03/02 A3017 RMK AO2 =
2018-02-20 04:56 METAR KWVL 200956Z AUTO 01003KT 8SM OVC043 03/02 A3018 RMK AO2 SLP250 T00280022
                 =
2018-02-20 04:28 METAR KWVL 200928Z AUTO 03003KT 7SM SCT004 OVC039 03/03 A3018 RMK AO2 =
2018-02-20 04:04 METAR KWVL 200904Z AUTO 35004KT 7SM BKN004 OVC041 03/03 A3017 RMK AO2 =
2018-02-20 03:56 METAR KWVL 200856Z AUTO 00000KT 10SM SCT004 OVC041 03/03 A3016 RMK AO2 SLP244
                 60000 T00330033 55006 =
2018-02-20 03:49 METAR KWVL 200849Z AUTO 00000KT 10SM FEW004 OVC041 03/03 A3016 RMK AO2 =
2018-02-20 02:56 METAR KWVL 200756Z AUTO 00000KT 10SM OVC039 03/03 A3016 RMK AO2 SLP243 T00330028
                 =
2018-02-20 01:56 METAR KWVL 200656Z AUTO 19003KT 10SM OVC041 03/02 A3017 RMK AO2 RAE14 SLP248
                 P0000 T00330022 =
2018-02-20 00:56 METAR KWVL 200556Z AUTO 00000KT 10SM -RA OVC039 04/03 A3018 RMK AO2 RAB29 SLP250
                 P0000 60000 T00390028 10044 20039 58001 =
2018-02-19 23:56 METAR KWVL 200456Z AUTO 20004KT 10SM FEW047 OVC085 04/02 A3018 RMK AO2 SLP249
                 T00440022 400611100 =
2018-02-19 22:56 METAR KWVL 200356Z AUTO 20005KT 10SM OVC046 04/02 A3019 RMK AO2 SLP253 T00440022
                 =
2018-02-19 21:56 METAR KWVL 200256Z AUTO 21004KT 10SM SCT036 BKN050 04/02 A3018 RMK AO2 SLP251
                 60000 T00440022 56018 =
2018-02-19 20:56 METAR KWVL 200156Z AUTO 20005KT 10SM OVC038 04/02 A3019 RMK AO2 SLP256 T00440022
                 =
2018-02-19 19:56 METAR KWVL 200056Z AUTO VRB04KT 10SM OVC040 04/02 A3020 RMK AO2 RAE30 SLP260
                 P0000 T00390017 =
2018-02-19 18:56 METAR KWVL 192356Z AUTO 20005KT 10SM -RA OVC044 04/01 A3024 RMK AO2 RAB47 SLP271
                 P0000 60000 T00390011 10061 20039 58013 =
2018-02-19 17:56 METAR KWVL 192256Z AUTO 20008KT 10SM BKN060 OVC080 04/01 A3025 RMK AO2 SLP276
                 T00390006 =
2018-02-19 16:56 METAR KWVL 192156Z AUTO 19008KT 10SM FEW100 04/M01 A3027 RMK AO2 SLP283
                 T00441006 =
2018-02-19 15:56 METAR KWVL 192056Z AUTO 20009G17KT 10SM SCT110 05/M02 A3027 RMK AO2 SLP284
                 T00501017 56014 =
2018-02-19 14:56 METAR KWVL 191956Z AUTO 19010G18KT 10SM SCT110 05/M02 A3028 RMK AO2 SLP286
                 T00501022 =
2018-02-19 13:56 METAR KWVL 191856Z AUTO 19011G20KT 10SM CLR 06/M04 A3029 RMK AO2 SLP289
                 T00611039 =
2018-02-19 12:56 METAR KWVL 191756Z AUTO 21010G18KT 170V230 10SM CLR 06/M04 A3032 RMK AO2 SLP297
                 T00561039 10056 21094 58049 =
2018-02-19 11:56 METAR KWVL 191656Z AUTO 20009G19KT 10SM CLR 05/M03 A3036 RMK AO2 PRESFR SLP314
                 T00501033 =
2018-02-19 10:56 METAR KWVL 191556Z AUTO 19008G16KT 10SM CLR 03/M03 A3042 RMK AO2 SLP335
                 T00331033 =

Support USWX by starting your Amazon purchase here.